Time;durP1;ratioP1;P1;durP2;ratioP2;P2;SDS_P1;SDS_P2;PMS_P1;PMS_P2;Temp;Humidity;BMP_temperature;BMP_pressure;BME280_temperature;BME280_humidity;BME280_pressure;Samples;Min_cycle;Max_cycle;Signal;HPM_P1;HPM_P2
2023/09/07 00:01:31;;;;;;;5.00;3.17;;;13.80;61.20;;;;;;4994309;28;20222;-69
2023/09/07 00:03:57;;;;;;;6.00;4.37;;;13.80;62.50;;;;;;4994519;28;20188;-69
2023/09/07 00:06:22;;;;;;;4.40;3.50;;;13.70;62.60;;;;;;4993419;28;20433;-68
2023/09/07 00:08:48;;;;;;;4.17;3.77;;;;;;;;;;4994124;28;20188;-69
2023/09/07 00:11:14;;;;;;;5.00;3.30;;;13.60;63.20;;;;;;4994036;28;20228;-70
2023/09/07 00:13:39;;;;;;;4.80;4.10;;;13.70;64.70;;;;;;4994108;28;20462;-69
2023/09/07 00:16:06;;;;;;;5.57;4.13;;;13.70;64.60;;;;;;4994099;28;20184;-68
2023/09/07 00:18:32;;;;;;;5.87;3.70;;;13.70;64.60;;;;;;4994082;28;20178;-69
2023/09/07 00:20:59;;;;;;;5.50;4.37;;;13.60;64.50;;;;;;4993602;28;20467;-69
2023/09/07 00:23:25;;;;;;;4.20;3.50;;;13.60;64.70;;;;;;4993864;28;20412;-69
2023/09/07 00:25:51;;;;;;;4.60;3.17;;;13.60;64.80;;;;;;4993868;28;20438;-69
2023/09/07 00:28:16;;;;;;;6.80;4.50;;;13.60;65.00;;;;;;4993933;28;20421;-69
2023/09/07 00:30:42;;;;;;;4.57;3.27;;;13.60;66.00;;;;;;4993638;28;20203;-69
2023/09/07 00:33:07;;;;;;;5.40;4.53;;;13.50;66.70;;;;;;4993933;28;20272;-69
2023/09/07 00:35:34;;;;;;;5.77;3.80;;;13.50;66.50;;;;;;4992360;28;20190;-69
2023/09/07 00:38:00;;;;;;;5.30;3.97;;;13.50;66.50;;;;;;4993689;28;20178;-69
2023/09/07 00:40:26;;;;;;;8.80;4.07;;;13.50;66.60;;;;;;4993293;28;20416;-69
2023/09/07 00:42:51;;;;;;;6.97;3.93;;;13.50;67.00;;;;;;4992352;28;20205;-69
2023/09/07 00:45:17;;;;;;;4.70;4.03;;;13.50;67.70;;;;;;4993441;28;20416;-69
2023/09/07 00:47:43;;;;;;;5.30;4.60;;;13.50;68.00;;;;;;4993655;28;20229;-69
2023/09/07 00:50:09;;;;;;;5.83;3.40;;;13.40;68.20;;;;;;4993185;28;20184;-70
2023/09/07 00:52:35;;;;;;;5.20;3.80;;;13.40;68.40;;;;;;4993370;28;20612;-70
2023/09/07 00:55:04;;;;;;;6.30;3.77;;;13.40;68.70;;;;;;4992811;28;20446;-70
2023/09/07 00:57:30;;;;;;;5.00;4.00;;;13.40;69.80;;;;;;4993630;28;20425;-69
2023/09/07 00:59:55;;;;;;;9.10;3.80;;;13.50;69.50;;;;;;4993130;28;20527;-69
2023/09/07 01:02:21;;;;;;;4.50;3.80;;;13.50;69.60;;;;;;4993053;28;20224;-70
2023/09/07 01:04:47;;;;;;;4.17;3.03;;;;;;;;;;4991802;28;20178;-70
2023/09/07 01:07:18;;;;;;;4.57;3.57;;;;;;;;;;4993152;28;20263;-69
2023/09/07 01:09:47;;;;;;;7.03;3.70;;;;;;;;;;4992957;28;20428;-69
2023/09/07 01:12:16;;;;;;;5.70;4.47;;;;;;;;;;4993106;28;20436;-69
2023/09/07 01:14:42;;;;;;;6.77;4.67;;;;;;;;;;4993155;28;20423;-69
2023/09/07 01:17:09;;;;;;;5.87;3.80;;;;;;;;;;4992912;28;20443;-69
2023/09/07 01:19:35;;;;;;;6.73;4.70;;;;;;;;;;4992897;28;20417;-70
2023/09/07 01:22:03;;;;;;;4.97;4.13;;;;;;;;;;4991543;28;20979;-69
2023/09/07 01:24:29;;;;;;;5.03;3.97;;;;;;;;;;4991654;28;20459;-68
2023/09/07 01:26:56;;;;;;;6.30;5.43;;;;;;;;;;4993016;28;20913;-69
2023/09/07 01:29:22;;;;;;;4.63;3.93;;;;;;;;;;4992705;28;20954;-69
2023/09/07 01:31:48;;;;;;;5.90;5.30;;;;;;;;;;4992409;28;20475;-70
2023/09/07 01:34:14;;;;;;;6.90;5.63;;;;;;;;;;4992703;28;20417;-69
2023/09/07 01:36:41;;;;;;;8.23;7.33;;;;;;;;;;4992798;28;20421;-69
2023/09/07 01:39:07;;;;;;;8.33;7.40;;;;;;;;;;4992715;28;20417;-69
2023/09/07 01:41:33;;;;;;;9.20;5.70;;;;;;;;;;4992318;28;20523;-69
2023/09/07 01:43:59;;;;;;;6.93;6.33;;;;;;;;;;4992696;28;20404;-69
2023/09/07 01:46:26;;;;;;;6.93;5.90;;;;;;;;;;4992837;28;20410;-68
2023/09/07 01:48:52;;;;;;;5.87;5.27;;;;;;;;;;4992540;28;20562;-69
2023/09/07 01:51:18;;;;;;;6.37;5.10;;;;;;;;;;4992547;28;20510;-69
2023/09/07 01:53:44;;;;;;;5.27;4.77;;;;;;;;;;4991283;28;20731;-69
2023/09/07 01:56:10;;;;;;;5.93;4.50;;;;;;;;;;4991455;28;20434;-69
2023/09/07 01:58:37;;;;;;;5.33;4.80;;;;;;;;;;4992633;28;20408;-70
2023/09/07 02:01:03;;;;;;;6.20;5.60;;;;;;;;;;4992072;28;20978;-69
2023/09/07 02:03:28;;;;;;;7.73;5.17;;;;;;;;;;4992594;28;20424;-70
2023/09/07 02:05:54;;;;;;;6.00;4.83;;;;;;;;;;4992920;28;20413;-69
2023/09/07 02:08:21;;;;;;;9.20;4.57;;;;;;;;;;4994807;28;20439;-69
2023/09/07 02:10:47;;;;;;;5.80;5.17;;;;;;;;;;4996355;28;20428;-70
2023/09/07 02:13:13;;;;;;;6.27;5.53;;;;;;;;;;4995264;28;20429;-70
2023/09/07 02:15:39;;;;;;;4.73;4.23;;;;;;;;;;4996511;28;20506;-69
2023/09/07 02:18:06;;;;;;;5.87;5.27;;;;;;;;;;4996444;28;20953;-69
2023/09/07 02:20:34;;;;;;;6.73;4.40;;;;;;;;;;4995947;28;20528;-69
2023/09/07 02:23:01;;;;;;;5.47;4.17;;;;;;;;;;4997119;28;20836;-70
2023/09/07 02:25:27;;;;;;;6.50;5.20;;;;;;;;;;4997227;28;20888;-70
2023/09/07 02:27:53;;;;;;;5.20;4.03;;;;;;;;;;4996267;28;20501;-70
2023/09/07 02:30:19;;;;;;;5.97;5.13;;;;;;;;;;4995644;28;20499;-71
2023/09/07 02:32:45;;;;;;;5.23;4.73;;;;;;;;;;4996021;28;20416;-70
2023/09/07 02:35:11;;;;;;;7.10;5.77;;;;;;;;;;4995017;28;20420;-70
2023/09/07 02:37:37;;;;;;;7.80;6.20;;;;;;;;;;4996062;28;20412;-70
2023/09/07 02:40:09;;;;;;;8.80;7.30;;;;;;;;;;4995616;28;20417;-71
2023/09/07 02:42:35;;;;;;;7.83;5.83;;;;;;;;;;4995880;28;20919;-71
2023/09/07 02:45:01;;;;;;;6.83;6.17;;;;;;;;;;4995880;28;20531;-70
2023/09/07 02:47:27;;;;;;;12.40;7.60;;;;;;;;;;4995747;28;20419;-71
2023/09/07 02:49:53;;;;;;;7.00;5.60;;;;;;;;;;4995761;28;20499;-71
2023/09/07 02:52:19;;;;;;;7.17;6.13;;;;;;;;;;4995594;28;21003;-71
2023/09/07 02:54:45;;;;;;;8.33;6.13;;;;;;;;;;4994543;28;20483;-70
2023/09/07 02:57:12;;;;;;;7.37;6.23;;;;;;;;;;4996806;28;20706;-70
2023/09/07 02:59:38;;;;;;;7.10;6.40;;;;;;;;;;4997035;28;20408;-70
2023/09/07 03:02:04;;;;;;;6.80;5.53;;;;;;;;;;4997046;28;20557;-71
2023/09/07 03:04:30;;;;;;;6.57;5.83;;;;;;;;;;4996219;28;20562;-70
2023/09/07 03:06:56;;;;;;;7.13;6.33;;;;;;;;;;4996059;28;20423;-71
2023/09/07 03:09:22;;;;;;;8.10;5.63;;;;;;;;;;4995630;28;20420;-70
2023/09/07 03:11:48;;;;;;;6.97;5.87;;;;;;;;;;4995420;28;20447;-71
2023/09/07 03:14:14;;;;;;;5.53;4.90;;;;;;;;;;4994506;28;20436;-70
2023/09/07 03:16:40;;;;;;;8.60;6.53;;;;;;;;;;4995733;28;20432;-71
2023/09/07 03:19:06;;;;;;;6.20;4.67;;;;;;;;;;4995233;28;20475;-71
2023/09/07 03:21:32;;;;;;;9.47;6.00;;;;;;;;;;4994965;28;20474;-71
2023/09/07 03:23:58;;;;;;;8.53;5.27;;;;;;;;;;4995535;28;20406;-70
2023/09/07 03:26:24;;;;;;;6.00;5.33;;;;;;;;;;4995226;28;20780;-70
2023/09/07 03:28:52;;;;;;;6.83;5.80;;;;;;;;;;4995184;28;20408;-70
2023/09/07 03:31:18;;;;;;;6.37;5.13;;;;;;;;;;4994598;28;20435;-71
2023/09/07 03:33:43;;;;;;;7.13;4.60;;;;;;;;;;4995077;28;20899;-71
2023/09/07 03:36:10;;;;;;;8.00;6.17;;;;;;;;;;4995291;28;20409;-71
2023/09/07 03:38:37;;;;;;;5.97;5.00;;;;;;;;;;4995161;28;20423;-70
2023/09/07 03:41:02;;;;;;;5.80;4.80;;;;;;;;;;4994484;28;20898;-70
2023/09/07 03:43:28;;;;;;;6.33;5.30;;;;;;;;;;4995943;28;20463;-71
2023/09/07 03:45:54;;;;;;;7.40;5.20;;;;;;;;;;4996326;28;20906;-71
2023/09/07 03:48:20;;;;;;;5.90;4.97;;;;;;;;;;4995371;28;20896;-71
2023/09/07 03:50:46;;;;;;;6.90;4.93;;;;;;;;;;4994417;28;20778;-73
2023/09/07 03:53:12;;;;;;;5.77;5.20;;;;;;;;;;4994534;28;20434;-73
2023/09/07 03:55:41;;;;;;;6.87;5.30;;;;;;;;;;4994631;28;20844;-72
2023/09/07 03:58:08;;;;;;;7.47;5.30;;;;;;;;;;4994303;28;20451;-70
2023/09/07 04:00:34;;;;;;;6.80;5.40;;;;;;;;;;4994255;28;20460;-71
2023/09/07 04:03:00;;;;;;;6.80;5.47;;;;;;;;;;4994541;28;20440;-72
2023/09/07 04:05:26;;;;;;;5.83;4.70;;;;;;;;;;4994293;28;20400;-72
2023/09/07 04:07:52;;;;;;;8.10;4.73;;;;;;;;;;4994376;28;20957;-72
2023/09/07 04:10:18;;;;;;;6.40;5.00;;;;;;;;;;4993980;28;20797;-71
2023/09/07 04:12:44;;;;;;;5.30;4.80;;;;;;;;;;4994025;28;20792;-71
2023/09/07 04:15:10;;;;;;;7.83;6.50;;;;;;;;;;4994367;28;20901;-72
2023/09/07 04:17:40;;;;;;;6.63;5.83;;;;;;;;;;4994132;28;20404;-72
2023/09/07 04:20:07;;;;;;;7.87;6.03;;;;;;;;;;4993858;28;20408;-71
2023/09/07 04:22:33;;;;;;;6.00;4.97;;;;;;;;;;4993921;28;20472;-71
2023/09/07 04:24:59;;;;;;;4.90;4.17;;;;;;;;;;4993882;28;20408;-71
2023/09/07 04:27:25;;;;;;;6.00;5.40;;;;;;;;;;4994266;28;20583;-71
2023/09/07 04:29:51;;;;;;;5.47;4.70;;;;;;;;;;4992938;28;20413;-71
2023/09/07 04:32:17;;;;;;;8.37;5.83;;;;;;;;;;4993652;28;20432;-71
2023/09/07 04:34:43;;;;;;;6.50;4.63;;;;;;;;;;4993781;28;20452;-71
2023/09/07 04:37:09;;;;;;;7.03;5.20;;;;;;;;;;4993763;28;20925;-71
2023/09/07 04:39:35;;;;;;;5.53;4.37;;;;;;;;;;4993859;28;20498;-71
2023/09/07 04:42:01;;;;;;;6.53;5.53;;;;;;;;;;4993282;28;20471;-71
2023/09/07 04:44:28;;;;;;;6.17;5.57;;;;;;;;;;4993629;28;20406;-72
2023/09/07 04:46:55;;;;;;;7.37;5.40;;;;;;;;;;4993681;28;20503;-72
2023/09/07 04:49:21;;;;;;;8.67;5.60;;;;;;;;;;4993558;28;20408;-72
2023/09/07 04:51:47;;;;;;;7.07;5.73;;;;;;;;;;4993300;28;20534;-71
2023/09/07 04:54:13;;;;;;;7.93;5.13;;;;;;;;;;4993423;28;20431;-72
2023/09/07 04:56:39;;;;;;;6.83;4.67;;;;;;;;;;4993666;28;20416;-71
2023/09/07 04:59:05;;;;;;;7.03;5.43;;;;;;;;;;4993146;28;20485;-71
2023/09/07 05:01:32;;;;;;;6.80;6.10;;;;;;;;;;4993159;28;20961;-71
2023/09/07 05:03:58;;;;;;;7.43;6.60;;;;;;;;;;4993376;28;20419;-72
2023/09/07 05:06:26;;;;;;;8.93;6.10;;;;;;;;;;4993612;28;20408;-72
2023/09/07 05:08:52;;;;;;;8.53;5.40;;;;;;;;;;4993115;28;20538;-72
2023/09/07 05:11:18;;;;;;;6.63;6.00;;;;;;;;;;4992733;28;20931;-72
2023/09/07 05:13:43;;;;;;;6.40;5.20;;;;;;;;;;4993127;28;20442;-72
2023/09/07 05:16:09;;;;;;;6.30;5.20;;;;;;;;;;4993210;28;20412;-72
2023/09/07 05:18:35;;;;;;;7.13;6.23;;;;;;;;;;4993322;28;20414;-72
2023/09/07 05:21:02;;;;;;;8.30;7.07;;;;;;;;;;4993006;28;20471;-70
2023/09/07 05:23:28;;;;;;;8.87;7.13;;;;;;;;;;4993323;28;20789;-71
2023/09/07 05:25:54;;;;;;;7.90;6.93;;;;;;;;;;4993003;28;20416;-71
2023/09/07 05:28:20;;;;;;;9.23;8.33;;;;;;;;;;4991701;28;20421;-71
2023/09/07 05:30:47;;;;;;;7.83;7.07;;;;;;;;;;4991378;28;20482;-71
2023/09/07 05:33:14;;;;;;;8.80;7.10;;;;;;;;;;4993103;28;20447;-71
2023/09/07 05:35:41;;;;;;;10.13;7.10;;;;;;;;;;4992749;28;20407;-71
2023/09/07 05:38:07;;;;;;;11.43;9.30;;;13.10;91.90;;;;;;4992940;28;20418;-73
2023/09/07 05:40:37;;;;;;;8.70;6.30;;;;;;;;;;4992563;28;20440;-69
2023/09/07 05:43:03;;;;;;;7.23;6.53;;;;;;;;;;4992652;28;20654;-70
2023/09/07 05:45:30;;;;;;;10.10;7.30;;;;;;;;;;4992744;28;20898;-70
2023/09/07 05:47:56;;;;;;;9.73;4.33;;;;;;;;;;4992663;28;20440;-70
2023/09/07 05:50:22;;;;;;;7.83;5.10;;;;;;;;;;4992393;28;20478;-71
2023/09/07 05:52:48;;;;;;;6.13;4.40;;;;;;;;;;4992527;28;20409;-70
2023/09/07 05:55:14;;;;;;;5.97;5.37;;;;;;;;;;4991606;28;20416;-71
2023/09/07 05:57:40;;;;;;;11.97;5.93;;;;;;;;;;4992887;28;20412;-71
2023/09/07 06:00:06;;;;;;;6.30;5.63;;;;;;;;;;4992780;28;20901;-71
2023/09/07 06:02:32;;;;;;;9.00;5.93;;;;;;;;;;4992473;28;20475;-70
2023/09/07 06:04:58;;;;;;;7.70;6.13;;;;;;;;;;5016822;22;21261;-69
2023/09/07 06:07:24;;;;;;;8.30;5.10;;;;;;;;;;4991150;28;20800;-68
2023/09/07 06:09:50;;;;;;;6.37;5.77;;;;;;;;;;4992220;28;20506;-68
2023/09/07 06:12:16;;;;;;;7.53;6.73;;;;;;;;;;4992279;28;20416;-68
2023/09/07 06:14:42;;;;;;;6.80;6.20;;;;;;;;;;4992412;28;20470;-69
2023/09/07 06:17:08;;;;;;;7.20;6.20;;;;;;;;;;4992157;28;20422;-68
2023/09/07 06:19:34;;;;;;;11.03;6.60;;;;;;;;;;4990556;28;20416;-69
2023/09/07 06:22:00;;;;;;;9.53;6.77;;;;;;;;;;4991899;28;20553;-69
2023/09/07 06:24:26;;;;;;;6.80;6.20;;;;;;;;;;4991903;28;20458;-69
2023/09/07 06:26:52;;;;;;;10.80;7.07;;;;;;;;;;4992006;28;20403;-69
2023/09/07 06:29:18;;;;;;;6.77;6.17;;;;;;;;;;4992009;28;20416;-69
2023/09/07 06:31:43;;;;;;;7.73;7.03;;;;;;;;;;4991771;28;20535;-69
2023/09/07 06:34:10;;;;;;;7.90;7.10;;;;;;;;;;4990654;28;20522;-69
2023/09/07 06:36:36;;;;;;;7.93;7.13;;;;;;;;;;4991904;28;20438;-68
2023/09/07 06:39:02;;;;;;;7.87;7.17;;;;;;;;;;4992067;28;20554;-68
2023/09/07 06:41:28;;;;;;;7.70;7.13;;;;;;;;;;5000498;28;21181;-69
2023/09/07 06:43:54;;;;;;;7.20;6.50;;;;;;;;;;5007387;28;20419;-70
2023/09/07 06:46:20;;;;;;;7.83;7.03;;;;;;;;;;5005606;28;20446;-70
2023/09/07 06:48:46;;;;;;;8.07;7.40;;;;;;;;;;5006301;28;21051;-70
2023/09/07 06:51:12;;;;;;;48.07;19.80;;;;;;;;;;5011176;28;20497;-70
2023/09/07 06:53:38;;;;;;;65.87;24.53;;;;;;;;;;5010926;28;20270;-70
2023/09/07 06:56:05;;;;;;;7.23;6.73;;;;;;;;;;5014608;28;20493;-70
2023/09/07 06:58:34;;;;;;;11.43;7.60;;;;;;;;;;5013526;28;20444;-70
2023/09/07 07:01:00;;;;;;;48.07;17.70;;;;;;;;;;5012999;28;20462;-69
2023/09/07 07:03:27;;;;;;;7.63;6.80;;;;;;;;;;5014773;28;20407;-70
2023/09/07 07:05:53;;;;;;;7.80;7.03;;;;;;;;;;5014433;28;20450;-70
2023/09/07 07:08:19;;;;;;;8.13;7.33;;;;;;;;;;5013157;28;20469;-70
2023/09/07 07:10:45;;;;;;;7.80;7.20;;;;;;;;;;5014244;28;20419;-70
2023/09/07 07:13:11;;;;;;;9.00;7.50;;;;;;;;;;5014847;28;20917;-71
2023/09/07 07:15:37;;;;;;;8.67;6.20;;;;;;;;;;5014479;28;20431;-70
2023/09/07 07:18:08;;;;;;;9.20;7.53;;;;;;;;;;5014527;28;20782;-70
2023/09/07 07:20:35;;;;;;;8.13;7.33;;;;;;;;;;5014139;28;20904;-70
2023/09/07 07:23:01;;;;;;;7.33;6.60;;;;;;;;;;5014365;28;20438;-70
2023/09/07 07:25:27;;;;;;;9.00;8.03;;;;;;;;;;5014155;28;20431;-71
2023/09/07 07:27:53;;;;;;;8.97;7.20;;;;;;;;;;5014214;28;20407;-71
2023/09/07 07:30:19;;;;;;;10.70;7.30;;;;;;;;;;5013936;28;20906;-71
2023/09/07 07:32:45;;;;;;;8.33;7.57;;;;;;;;;;5014126;28;20523;-71
2023/09/07 07:35:11;;;;;;;9.20;6.60;;;;;;;;;;5012762;28;20440;-70
2023/09/07 07:37:37;;;;;;;9.50;7.43;;;;;;;;;;5014085;28;20534;-70
2023/09/07 07:40:04;;;;;;;7.40;6.70;;;;;;;;;;5013898;28;20545;-71
2023/09/07 07:42:30;;;;;;;7.83;6.80;;;;;;;;;;5013993;28;20481;-70
2023/09/07 07:44:56;;;;;;;8.13;5.87;;;;;;;;;;5013956;28;20430;-70
2023/09/07 07:47:22;;;;;;;9.00;6.60;;;;;;;;;;5013866;28;20454;-70
2023/09/07 07:49:48;;;;;;;10.80;8.03;;;;;;;;;;5013679;28;20407;-70
2023/09/07 07:52:13;;;;;;;7.70;6.50;;;;;;;;;;5013737;28;20419;-70
2023/09/07 07:54:39;;;;;;;23.80;10.87;;;;;;;;;;5013664;28;20521;-70
2023/09/07 07:57:05;;;;;;;9.13;6.83;;;;;;;;;;5013699;28;20411;-70
2023/09/07 07:59:34;;;;;;;81.70;18.10;;;;;;;;;;5012258;28;20518;-70
2023/09/07 08:02:00;;;;;;;8.20;6.57;;;;;;;;;;5013192;28;20474;-69
2023/09/07 08:04:27;;;;;;;7.50;6.23;;;;;;;;;;5013221;28;20486;-69
2023/09/07 08:06:58;;;;;;;7.10;6.40;;;;;;;;;;5013556;28;20411;-70
2023/09/07 08:09:23;;;;;;;8.43;7.60;;;;;;;;;;5013900;28;20403;-70
2023/09/07 08:11:51;;;;;;;8.13;7.23;;;;;;;;;;5013214;28;20423;-70
2023/09/07 08:14:17;;;;;;;7.63;6.93;;;;;;;;;;5013390;28;20432;-70
2023/09/07 08:16:43;;;;;;;11.63;8.00;;;;;;;;;;5011878;28;20442;-70
2023/09/07 08:19:09;;;;;;;6.80;6.20;;;;;;;;;;5013303;28;20469;-69
2023/09/07 08:21:35;;;;;;;14.30;7.80;;;;;;;;;;5011606;28;20605;-70
2023/09/07 08:24:02;;;;;;;7.97;7.27;;;;;;;;;;5013094;28;20408;-70
2023/09/07 08:26:28;;;;;;;7.57;6.97;;;;;;;;;;5013052;28;20434;-70
2023/09/07 08:28:54;;;;;;;8.60;7.70;;;;;;;;;;5013263;28;20407;-71
2023/09/07 08:31:22;;;;;;;8.50;7.80;;;;;;;;;;5013212;28;20469;-70
2023/09/07 08:33:50;;;;;;;7.90;7.30;;;;;;;;;;5013149;28;20418;-70
2023/09/07 08:36:17;;;;;;;8.33;7.63;;;;;;;;;;5013113;28;20435;-71
2023/09/07 08:38:43;;;;;;;7.57;6.97;;;;;;;;;;5012898;28;20808;-71
2023/09/07 08:41:09;;;;;;;8.67;7.93;;;;;;;;;;5012486;28;20532;-71
2023/09/07 08:43:40;;;;;;;21.97;10.63;;;;;;;;;;5012832;28;20894;-70
2023/09/07 08:46:18;;;;;;;7.33;6.80;;;;;;;;;;5012708;28;20474;-70
2023/09/07 08:48:44;;;;;;;7.93;6.90;;;;;;;;;;5013017;28;20414;-69
2023/09/07 08:51:11;;;;;;;7.77;7.07;;;;;;;;;;5011130;28;20423;-70
2023/09/07 08:53:38;;;;;;;11.57;7.40;;;;;;;;;;5012399;28;20429;-69
2023/09/07 08:56:04;;;;;;;6.77;6.17;;;;;;;;;;5011215;28;20580;-69
2023/09/07 08:58:31;;;;;;;7.90;6.17;;;;;;;;;;5012644;28;20904;-70
2023/09/07 09:00:57;;;;;;;11.43;9.23;;;;;;;;;;5012150;28;20869;-69
2023/09/07 09:03:23;;;;;;;6.60;5.77;;;;;;;;;;5012517;28;20415;-70
2023/09/07 09:05:51;;;;;;;9.30;6.20;;;;;;;;;;5010900;28;20558;-70
2023/09/07 09:08:24;;;;;;;8.60;6.87;;;;;;;;;;5012190;28;21068;-71
2023/09/07 09:10:50;;;;;;;6.80;6.20;;;;;;;;;;5012012;28;20424;-70
2023/09/07 09:13:15;;;;;;;7.13;6.40;;;22.70;18.70;;;;;;5012464;28;20914;-70
2023/09/07 09:15:41;;;;;;;6.80;6.20;;;22.60;16.30;;;;;;5011933;28;20504;-70
2023/09/07 09:18:12;;;;;;;6.60;6.00;;;22.70;16.50;;;;;;5010572;28;20234;-70
2023/09/07 09:20:39;;;;;;;6.67;5.97;;;22.70;16.70;;;;;;5011713;28;20179;-69
2023/09/07 09:23:04;;;;;;;7.07;6.37;;;22.70;17.00;;;;;;5012256;28;20411;-70
2023/09/07 09:25:31;;;;;;;7.10;6.40;;;22.70;16.00;;;;;;5012049;28;20493;-70
2023/09/07 09:27:57;;;;;;;7.33;6.63;;;22.60;15.70;;;;;;5012403;28;20183;-69
2023/09/07 09:30:22;;;;;;;13.67;6.73;;;22.70;15.50;;;;;;5013945;28;20419;-69
2023/09/07 09:32:48;;;;;;;6.10;5.47;;;22.70;15.30;;;;;;5013374;28;20188;-69
2023/09/07 09:35:17;;;;;;;6.87;6.20;;;22.70;14.00;;;;;;5013349;28;20651;-68
2023/09/07 09:37:48;;;;;;;12.80;6.40;;;22.70;14.00;;;;;;5012809;28;20427;-69
2023/09/07 09:40:16;;;;;;;6.43;5.77;;;22.80;14.00;;;;;;5010579;28;20430;-70
2023/09/07 09:42:43;;;;;;;6.07;5.20;;;22.90;14.20;;;;;;5011759;28;20462;-69
2023/09/07 09:45:10;;;;;;;6.30;5.70;;;22.90;14.10;;;;;;5010755;28;20458;-69
2023/09/07 09:47:40;;;;;;;11.97;6.70;;;23.00;14.40;;;;;;5012603;28;20423;-69
2023/09/07 09:50:08;;;;;;;6.60;6.00;;;23.20;14.30;;;;;;5014026;28;20625;-68
2023/09/07 09:52:36;;;;;;;9.70;5.10;;;23.30;13.30;;;;;;5011954;28;20418;-69
2023/09/07 09:55:05;;;;;;;7.30;6.63;;;23.40;14.40;;;;;;5003656;28;20878;-69
2023/09/07 09:57:31;;;;;;;7.03;6.40;;;23.50;13.40;;;;;;4981417;28;20943;-69
2023/09/07 09:59:58;;;;;;;6.20;5.60;;;23.60;13.50;;;;;;4972545;28;20436;-69
2023/09/07 10:02:26;;;;;;;6.83;6.23;;;23.70;13.80;;;;;;4990407;28;20474;-68
2023/09/07 10:04:52;;;;;;;7.23;6.00;;;23.90;14.30;;;;;;4991783;28;20452;-69
2023/09/07 10:07:19;;;;;;;7.87;5.43;;;24.00;12.80;;;;;;4992221;28;20447;-69
2023/09/07 10:09:44;;;;;;;5.90;5.40;;;24.10;13.20;;;;;;4971398;28;20417;-68
2023/09/07 10:12:13;;;;;;;6.30;5.70;;;24.30;13.00;;;;;;4984363;28;20543;-69
2023/09/07 10:14:42;;;;;;;5.87;5.30;;;24.30;13.20;;;;;;4983532;28;20258;-68
2023/09/07 10:17:09;;;;;;;6.40;5.53;;;24.40;13.20;;;;;;4989146;28;20412;-69
2023/09/07 10:19:36;;;;;;;7.87;6.27;;;24.40;12.60;;;;;;4973279;28;20420;-69
2023/09/07 10:22:03;;;;;;;6.47;5.87;;;24.50;13.50;;;;;;4971255;28;20530;-69
2023/09/07 10:24:33;;;;;;;6.70;6.10;;;24.60;13.80;;;;;;4973436;28;20413;-69
2023/09/07 10:27:08;;;;;;;7.50;5.70;;;24.70;12.90;;;;;;4973675;28;20928;-70
2023/09/07 10:29:52;;;;;;;6.80;6.10;;;24.80;12.80;;;;;;4994215;28;20447;-69
2023/09/07 10:32:17;;;;;;;7.03;6.33;;;25.00;12.30;;;;;;4996969;28;20423;-70
2023/09/07 10:34:43;;;;;;;6.13;5.03;;;25.00;13.40;;;;;;4997087;28;20436;-69
2023/09/07 10:37:13;;;;;;;8.50;5.80;;;25.10;12.80;;;;;;4997063;28;20259;-70
2023/09/07 10:39:39;;;;;;;7.13;5.60;;;25.20;12.20;;;;;;4996688;28;20177;-70
2023/09/07 10:42:05;;;;;;;5.80;5.30;;;25.30;12.10;;;;;;4996667;28;20470;-70
2023/09/07 10:44:31;;;;;;;5.80;4.87;;;25.20;12.10;;;;;;4998531;28;20420;-70
2023/09/07 10:47:00;;;;;;;5.60;5.10;;;25.30;11.80;;;;;;4995258;28;20193;-71
2023/09/07 10:49:25;;;;;;;6.17;5.57;;;25.30;12.30;;;;;;4995206;28;20188;-71
2023/09/07 10:51:51;;;;;;;8.67;5.60;;;25.50;12.10;;;;;;4994995;28;20423;-71
2023/09/07 10:54:18;;;;;;;5.73;5.13;;;25.60;12.00;;;;;;4993580;28;20670;-71
2023/09/07 10:56:47;;;;;;;7.63;6.30;;;25.60;11.80;;;;;;4993744;28;20419;-71
2023/09/07 10:59:17;;;;;;;10.03;5.67;;;25.70;11.30;;;;;;4995199;28;20815;-71
2023/09/07 11:01:46;;;;;;;6.40;5.80;;;25.80;11.60;;;;;;4994762;28;20554;-71
2023/09/07 11:04:12;;;;;;;6.43;5.83;;;25.70;11.40;;;;;;4995076;28;20419;-71
2023/09/07 11:06:39;;;;;;;6.73;6.03;;;25.80;11.90;;;;;;4994803;28;20966;-71
2023/09/07 11:09:08;;;;;;;5.40;4.90;;;25.90;11.70;;;;;;4993417;28;20424;-71
2023/09/07 11:11:34;;;;;;;6.23;5.63;;;26.00;11.30;;;;;;4994887;28;20478;-70
2023/09/07 11:14:01;;;;;;;8.90;5.90;;;26.00;11.20;;;;;;4994904;28;20424;-70
2023/09/07 11:16:27;;;;;;;8.17;5.50;;;26.00;11.90;;;;;;4994738;28;20431;-71
2023/09/07 11:18:54;;;;;;;6.80;6.20;;;26.10;11.40;;;;;;4994944;28;20415;-71
2023/09/07 11:21:20;;;;;;;5.90;5.30;;;26.20;11.80;;;;;;4992980;28;20204;-70
2023/09/07 11:23:46;;;;;;;7.47;6.80;;;26.40;11.50;;;;;;4994420;28;20774;-71
2023/09/07 11:26:11;;;;;;;6.57;6.03;;;26.40;11.00;;;;;;4994658;28;20219;-71
2023/09/07 11:28:38;;;;;;;11.00;8.00;;;26.50;10.80;;;;;;4994682;28;20177;-71
2023/09/07 11:31:03;;;;;;;9.03;6.63;;;26.70;11.10;;;;;;4994325;28;20644;-71
2023/09/07 11:33:33;;;;;;;6.13;5.53;;;26.80;10.30;;;;;;4994576;28;20482;-71
2023/09/07 11:35:58;;;;;;;7.60;6.90;;;26.80;10.50;;;;;;4994404;28;20207;-71
2023/09/07 11:38:30;;;;;;;9.70;6.00;;;26.70;10.70;;;;;;4994062;28;20435;-70
2023/09/07 11:40:56;;;;;;;10.07;6.07;;;26.90;10.60;;;;;;4993654;28;20239;-71
2023/09/07 11:43:22;;;;;;;13.27;7.27;;;27.00;11.20;;;;;;4994345;28;20785;-71
2023/09/07 11:45:48;;;;;;;9.00;6.90;;;27.20;11.40;;;;;;4992813;28;20444;-71
2023/09/07 11:48:14;;;;;;;7.73;6.53;;;27.10;11.10;;;;;;4994096;28;20412;-72
2023/09/07 11:50:40;;;;;;;6.37;5.47;;;;;;;;;;4993887;28;20594;-73
2023/09/07 11:53:07;;;;;;;5.70;5.20;;;;;;;;;;4994585;28;20454;-70
2023/09/07 11:55:33;;;;;;;8.73;6.30;;;;;;;;;;4994158;28;20443;-69
2023/09/07 11:57:59;;;;;;;7.33;6.33;;;;;;;;;;4994341;28;20422;-70
2023/09/07 12:00:25;;;;;;;10.80;6.20;;;;;;;;;;4994137;28;20440;-70
2023/09/07 12:02:51;;;;;;;6.80;6.13;;;;;;;;;;4994011;28;20509;-70
2023/09/07 12:05:19;;;;;;;5.97;5.53;;;;;;;;;;5022926;22;20533;-71
2023/09/07 12:07:45;;;;;;;5.70;5.23;;;;;;;;;;5015063;28;20419;-73
2023/09/07 12:10:11;;;;;;;6.10;5.50;;;;;;;;;;5029215;28;20413;-73
2023/09/07 12:12:38;;;;;;;8.30;6.67;;;;;;;;;;5033986;28;20781;-71
2023/09/07 12:15:04;;;;;;;7.10;6.50;;;;;;;;;;5033738;28;20438;-72
2023/09/07 12:17:30;;;;;;;6.87;6.27;;;;;;;;;;5033813;28;20410;-69
2023/09/07 12:19:56;;;;;;;8.00;7.30;;;;;;;;;;5033803;28;20473;-70
2023/09/07 12:22:22;;;;;;;5.60;5.10;;;;;;;;;;5034087;28;20486;-70
2023/09/07 12:24:48;;;;;;;6.10;5.60;;;;;;;;;;5034358;28;20955;-69
2023/09/07 12:27:14;;;;;;;7.63;7.00;;;;;;;;;;5033675;28;20418;-73
2023/09/07 12:29:40;;;;;;;6.50;6.00;;;;;;;;;;5034682;28;20509;-72
2023/09/07 12:32:06;;;;;;;13.40;8.60;;;;;;;;;;5033579;28;20471;-73
2023/09/07 12:34:32;;;;;;;8.57;7.63;;;;;;;;;;5033608;28;20501;-72
2023/09/07 12:36:58;;;;;;;7.03;6.23;;;;;;;;;;5033634;28;20433;-72
2023/09/07 12:39:24;;;;;;;8.50;6.67;;;;;;;;;;5032779;28;20414;-73
2023/09/07 12:41:50;;;;;;;7.90;6.57;;;;;;;;;;5032258;28;20462;-75
2023/09/07 12:44:18;;;;;;;7.33;6.50;;;;;;;;;;5033371;28;20436;-73
2023/09/07 12:46:44;;;;;;;6.70;6.00;;;;;;;;;;5033188;28;20434;-72
2023/09/07 12:49:10;;;;;;;6.47;5.97;;;;;;;;;;5033097;28;20496;-70
2023/09/07 12:51:36;;;;;;;6.10;5.50;;;;;;;;;;5032052;28;20897;-69
2023/09/07 12:54:02;;;;;;;5.87;5.37;;;;;;;;;;5032893;28;20432;-68
2023/09/07 12:56:28;;;;;;;6.20;5.70;;;;;;;;;;5032947;28;20434;-71
2023/09/07 12:58:57;;;;;;;6.90;6.23;;;;;;;;;;5032676;28;20916;-71
2023/09/07 13:01:23;;;;;;;5.53;5.00;;;;;;;;;;5032365;28;20824;-71
2023/09/07 13:03:48;;;;;;;5.90;5.30;;;;;;;;;;5032737;28;20418;-69
2023/09/07 13:06:17;;;;;;;9.10;5.27;;;;;;;;;;5032244;28;20445;-68
2023/09/07 13:08:43;;;;;;;8.20;7.40;;;;;;;;;;5032667;28;20897;-70
2023/09/07 13:11:08;;;;;;;6.17;5.70;;;;;;;;;;5032523;28;20489;-69
2023/09/07 13:13:34;;;;;;;11.90;7.17;;;;;;;;;;5032689;28;20406;-71
2023/09/07 13:16:01;;;;;;;9.80;7.40;;;;;;;;;;5032472;28;20422;-70
2023/09/07 13:18:26;;;;;;;6.63;6.00;;;;;;;;;;5032265;28;20797;-71
2023/09/07 13:20:59;;;;;;;6.17;5.67;;;;;;;;;;5030923;28;20418;-71
2023/09/07 13:23:24;;;;;;;7.20;6.53;;;;;;;;;;5032523;28;20414;-71
2023/09/07 13:25:50;;;;;;;6.07;5.53;;;;;;;;;;5032484;28;20434;-72
2023/09/07 13:28:16;;;;;;;15.37;6.07;;;;;;;;;;5032805;28;20433;-71
2023/09/07 13:30:42;;;;;;;5.97;5.40;;;;;;;;;;5032217;28;20414;-70
2023/09/07 13:33:08;;;;;;;6.40;5.87;;;;;;;;;;5032513;28;20422;-70
2023/09/07 13:35:34;;;;;;;6.00;5.40;;;;;;;;;;5032528;28;20990;-70
2023/09/07 13:38:00;;;;;;;7.53;6.00;;;;;;;;;;5032103;28;20503;-71
2023/09/07 13:40:29;;;;;;;6.40;5.90;;;;;;;;;;5031961;28;20414;-71
2023/09/07 13:42:55;;;;;;;6.87;6.17;;;;;;;;;;5032182;28;20461;-74
2023/09/07 13:45:22;;;;;;;7.40;6.00;;;;;;;;;;5032047;28;20829;-71
2023/09/07 13:47:48;;;;;;;6.50;5.90;;;;;;;;;;5032001;28;20469;-71
2023/09/07 13:50:14;;;;;;;6.20;5.60;;;;;;;;;;5031988;28;20880;-71
2023/09/07 13:52:40;;;;;;;5.80;5.40;;;;;;;;;;5032063;28;20834;-70
2023/09/07 13:55:06;;;;;;;6.70;6.20;;;;;;;;;;5031797;28;20430;-71
2023/09/07 13:57:33;;;;;;;6.13;5.63;;;;;;;;;;5031935;28;20456;-71
2023/09/07 13:59:59;;;;;;;6.30;5.70;;;;;;;;;;5017768;28;20430;-72
2023/09/07 14:02:25;;;;;;;5.63;5.13;;;;;;;;;;5009382;28;20466;-72
2023/09/07 14:04:52;;;;;;;6.13;5.53;;;;;;;;;;5015976;28;20917;-71